sensor_id;sensor_type;location;lat;lon;timestamp;P1;durP1;ratioP1;P2;durP2;ratioP2
38399;SDS011;24180;42.676;23.320;2022-12-29T00:01:50;38.47;;;27.53;;
38399;SDS011;24180;42.676;23.320;2022-12-29T00:04:17;41.57;;;27.27;;
38399;SDS011;24180;42.676;23.320;2022-12-29T00:06:43;41.17;;;27.93;;
38399;SDS011;24180;42.676;23.320;2022-12-29T00:09:08;38.30;;;27.17;;
38399;SDS011;24180;42.676;23.320;2022-12-29T00:11:36;36.90;;;26.60;;
38399;SDS011;24180;42.676;23.320;2022-12-29T00:14:01;42.60;;;28.33;;
38399;SDS011;24180;42.676;23.320;2022-12-29T00:16:46;41.00;;;27.70;;
38399;SDS011;24180;42.676;23.320;2022-12-29T00:19:11;39.70;;;27.10;;
38399;SDS011;24180;42.676;23.320;2022-12-29T00:21:56;41.00;;;28.23;;
38399;SDS011;24180;42.676;23.320;2022-12-29T00:24:40;40.57;;;28.17;;
38399;SDS011;24180;42.676;23.320;2022-12-29T00:27:25;42.77;;;27.37;;
38399;SDS011;24180;42.676;23.320;2022-12-29T00:30:11;40.00;;;27.37;;
38399;SDS011;24180;42.676;23.320;2022-12-29T00:32:56;43.90;;;28.43;;
38399;SDS011;24180;42.676;23.320;2022-12-29T00:35:53;38.30;;;27.03;;
38399;SDS011;24180;42.676;23.320;2022-12-29T00:38:23;38.33;;;26.70;;
38399;SDS011;24180;42.676;23.320;2022-12-29T00:41:07;39.50;;;26.70;;
38399;SDS011;24180;42.676;23.320;2022-12-29T00:43:50;43.97;;;27.57;;
38399;SDS011;24180;42.676;23.320;2022-12-29T00:46:34;40.33;;;26.83;;
38399;SDS011;24180;42.676;23.320;2022-12-29T00:49:00;37.90;;;26.57;;
38399;SDS011;24180;42.676;23.320;2022-12-29T00:51:45;36.20;;;25.27;;
38399;SDS011;24180;42.676;23.320;2022-12-29T00:54:10;40.43;;;25.33;;
38399;SDS011;24180;42.676;23.320;2022-12-29T00:56:36;37.50;;;26.50;;
38399;SDS011;24180;42.676;23.320;2022-12-29T00:59:02;36.80;;;26.07;;
38399;SDS011;24180;42.676;23.320;2022-12-29T01:01:30;37.83;;;25.73;;
38399;SDS011;24180;42.676;23.320;2022-12-29T01:03:55;35.80;;;24.30;;
38399;SDS011;24180;42.676;23.320;2022-12-29T01:06:20;35.17;;;23.87;;
38399;SDS011;24180;42.676;23.320;2022-12-29T01:08:46;32.50;;;22.97;;
38399;SDS011;24180;42.676;23.320;2022-12-29T01:11:31;34.23;;;24.77;;
38399;SDS011;24180;42.676;23.320;2022-12-29T01:13:57;29.63;;;21.77;;
38399;SDS011;24180;42.676;23.320;2022-12-29T01:16:22;31.47;;;23.03;;
38399;SDS011;24180;42.676;23.320;2022-12-29T01:18:47;30.73;;;22.87;;
38399;SDS011;24180;42.676;23.320;2022-12-29T01:21:13;30.27;;;21.23;;
38399;SDS011;24180;42.676;23.320;2022-12-29T01:23:38;31.10;;;20.83;;
38399;SDS011;24180;42.676;23.320;2022-12-29T01:26:10;32.30;;;21.40;;
38399;SDS011;24180;42.676;23.320;2022-12-29T01:28:37;30.93;;;21.17;;
38399;SDS011;24180;42.676;23.320;2022-12-29T01:31:05;35.30;;;21.77;;
38399;SDS011;24180;42.676;23.320;2022-12-29T01:33:31;27.57;;;20.50;;
38399;SDS011;24180;42.676;23.320;2022-12-29T01:36:00;30.27;;;21.13;;
38399;SDS011;24180;42.676;23.320;2022-12-29T01:38:26;25.80;;;19.93;;
38399;SDS011;24180;42.676;23.320;2022-12-29T01:40:51;29.67;;;20.30;;
38399;SDS011;24180;42.676;23.320;2022-12-29T01:43:17;26.87;;;19.83;;
38399;SDS011;24180;42.676;23.320;2022-12-29T01:45:44;27.10;;;19.77;;
38399;SDS011;24180;42.676;23.320;2022-12-29T01:48:13;25.40;;;19.47;;
38399;SDS011;24180;42.676;23.320;2022-12-29T01:50:40;29.00;;;20.90;;
38399;SDS011;24180;42.676;23.320;2022-12-29T01:53:20;27.27;;;20.03;;
38399;SDS011;24180;42.676;23.320;2022-12-29T01:55:53;31.13;;;20.77;;
38399;SDS011;24180;42.676;23.320;2022-12-29T01:58:21;26.53;;;18.97;;
38399;SDS011;24180;42.676;23.320;2022-12-29T02:00:49;27.07;;;19.93;;
38399;SDS011;24180;42.676;23.320;2022-12-29T02:03:16;28.43;;;18.73;;
38399;SDS011;24180;42.676;23.320;2022-12-29T02:05:50;28.47;;;18.97;;
38399;SDS011;24180;42.676;23.320;2022-12-29T02:08:21;26.00;;;18.70;;
38399;SDS011;24180;42.676;23.320;2022-12-29T02:10:51;26.63;;;19.30;;
38399;SDS011;24180;42.676;23.320;2022-12-29T02:13:16;25.23;;;19.10;;
38399;SDS011;24180;42.676;23.320;2022-12-29T02:39:05;23.23;;;16.27;;
38399;SDS011;24180;42.676;23.320;2022-12-29T02:41:44;21.50;;;17.03;;
38399;SDS011;24180;42.676;23.320;2022-12-29T02:52:51;24.60;;;16.90;;
38399;SDS011;24180;42.676;23.320;2022-12-29T02:55:23;23.17;;;17.17;;
38399;SDS011;24180;42.676;23.320;2022-12-29T02:57:48;22.03;;;16.97;;
38399;SDS011;24180;42.676;23.320;2022-12-29T03:00:31;21.97;;;17.07;;
38399;SDS011;24180;42.676;23.320;2022-12-29T03:11:02;24.43;;;16.97;;
38399;SDS011;24180;42.676;23.320;2022-12-29T03:16:34;24.73;;;18.13;;
38399;SDS011;24180;42.676;23.320;2022-12-29T03:19:14;25.60;;;17.37;;
38399;SDS011;24180;42.676;23.320;2022-12-29T03:24:44;25.20;;;16.73;;
38399;SDS011;24180;42.676;23.320;2022-12-29T03:27:13;24.27;;;17.63;;
38399;SDS011;24180;42.676;23.320;2022-12-29T03:29:44;24.17;;;17.80;;
38399;SDS011;24180;42.676;23.320;2022-12-29T03:32:18;22.73;;;16.80;;
38399;SDS011;24180;42.676;23.320;2022-12-29T03:34:45;24.53;;;18.17;;
38399;SDS011;24180;42.676;23.320;2022-12-29T03:37:14;25.97;;;17.80;;
38399;SDS011;24180;42.676;23.320;2022-12-29T03:39:43;24.83;;;17.37;;
38399;SDS011;24180;42.676;23.320;2022-12-29T03:42:11;29.07;;;17.57;;
38399;SDS011;24180;42.676;23.320;2022-12-29T03:44:40;25.57;;;18.13;;
38399;SDS011;24180;42.676;23.320;2022-12-29T03:47:07;23.30;;;16.93;;
38399;SDS011;24180;42.676;23.320;2022-12-29T03:49:34;25.87;;;18.47;;
38399;SDS011;24180;42.676;23.320;2022-12-29T03:52:00;27.77;;;19.50;;
38399;SDS011;24180;42.676;23.320;2022-12-29T03:54:26;28.50;;;18.63;;
38399;SDS011;24180;42.676;23.320;2022-12-29T03:56:51;28.00;;;18.63;;
38399;SDS011;24180;42.676;23.320;2022-12-29T03:59:16;31.10;;;20.63;;
38399;SDS011;24180;42.676;23.320;2022-12-29T04:01:42;25.57;;;18.50;;
38399;SDS011;24180;42.676;23.320;2022-12-29T04:04:07;23.53;;;18.20;;
38399;SDS011;24180;42.676;23.320;2022-12-29T04:06:33;24.73;;;18.73;;
38399;SDS011;24180;42.676;23.320;2022-12-29T04:08:59;27.30;;;18.57;;
38399;SDS011;24180;42.676;23.320;2022-12-29T04:11:24;28.13;;;19.00;;
38399;SDS011;24180;42.676;23.320;2022-12-29T04:13:50;29.43;;;19.53;;
38399;SDS011;24180;42.676;23.320;2022-12-29T04:16:15;31.57;;;19.83;;
38399;SDS011;24180;42.676;23.320;2022-12-29T04:18:41;25.40;;;18.83;;
38399;SDS011;24180;42.676;23.320;2022-12-29T04:21:06;27.03;;;19.27;;
38399;SDS011;24180;42.676;23.320;2022-12-29T04:23:35;27.73;;;20.00;;
38399;SDS011;24180;42.676;23.320;2022-12-29T04:26:02;26.27;;;19.53;;
38399;SDS011;24180;42.676;23.320;2022-12-29T04:28:28;27.90;;;20.63;;
38399;SDS011;24180;42.676;23.320;2022-12-29T04:30:54;27.10;;;19.90;;
38399;SDS011;24180;42.676;23.320;2022-12-29T04:33:20;28.87;;;19.23;;
38399;SDS011;24180;42.676;23.320;2022-12-29T04:35:45;28.10;;;19.77;;
38399;SDS011;24180;42.676;23.320;2022-12-29T04:38:11;29.67;;;20.50;;
38399;SDS011;24180;42.676;23.320;2022-12-29T04:40:38;30.73;;;21.33;;
38399;SDS011;24180;42.676;23.320;2022-12-29T04:43:05;28.40;;;19.97;;
38399;SDS011;24180;42.676;23.320;2022-12-29T04:45:31;28.43;;;18.97;;
38399;SDS011;24180;42.676;23.320;2022-12-29T04:47:56;29.00;;;20.03;;
38399;SDS011;24180;42.676;23.320;2022-12-29T04:50:21;26.03;;;19.27;;
38399;SDS011;24180;42.676;23.320;2022-12-29T04:52:47;30.77;;;19.17;;
38399;SDS011;24180;42.676;23.320;2022-12-29T04:55:12;31.47;;;20.73;;
38399;SDS011;24180;42.676;23.320;2022-12-29T04:57:38;29.70;;;20.53;;
38399;SDS011;24180;42.676;23.320;2022-12-29T05:00:03;29.50;;;20.20;;
38399;SDS011;24180;42.676;23.320;2022-12-29T05:02:30;31.23;;;19.57;;
38399;SDS011;24180;42.676;23.320;2022-12-29T05:04:55;31.57;;;20.43;;
38399;SDS011;24180;42.676;23.320;2022-12-29T05:07:20;31.67;;;21.13;;
38399;SDS011;24180;42.676;23.320;2022-12-29T05:09:46;28.63;;;19.80;;
38399;SDS011;24180;42.676;23.320;2022-12-29T05:12:11;29.00;;;19.60;;
38399;SDS011;24180;42.676;23.320;2022-12-29T05:14:37;28.80;;;20.77;;
38399;SDS011;24180;42.676;23.320;2022-12-29T05:17:02;33.73;;;20.63;;
38399;SDS011;24180;42.676;23.320;2022-12-29T05:19:27;32.27;;;21.50;;
38399;SDS011;24180;42.676;23.320;2022-12-29T05:21:53;30.20;;;20.60;;
38399;SDS011;24180;42.676;23.320;2022-12-29T05:24:19;28.33;;;19.87;;
38399;SDS011;24180;42.676;23.320;2022-12-29T05:26:44;31.80;;;20.73;;
38399;SDS011;24180;42.676;23.320;2022-12-29T05:29:10;29.93;;;20.03;;
38399;SDS011;24180;42.676;23.320;2022-12-29T05:31:35;31.90;;;21.37;;
38399;SDS011;24180;42.676;23.320;2022-12-29T05:34:01;29.43;;;20.80;;
38399;SDS011;24180;42.676;23.320;2022-12-29T05:36:27;28.77;;;21.40;;
38399;SDS011;24180;42.676;23.320;2022-12-29T05:38:53;30.10;;;20.93;;
38399;SDS011;24180;42.676;23.320;2022-12-29T05:41:18;32.80;;;21.13;;
38399;SDS011;24180;42.676;23.320;2022-12-29T05:43:44;31.47;;;22.00;;
38399;SDS011;24180;42.676;23.320;2022-12-29T05:46:09;29.03;;;20.57;;
38399;SDS011;24180;42.676;23.320;2022-12-29T05:48:35;30.03;;;21.47;;
38399;SDS011;24180;42.676;23.320;2022-12-29T05:51:00;30.47;;;21.23;;
38399;SDS011;24180;42.676;23.320;2022-12-29T05:53:26;30.50;;;21.80;;
38399;SDS011;24180;42.676;23.320;2022-12-29T05:55:51;30.37;;;21.70;;
38399;SDS011;24180;42.676;23.320;2022-12-29T05:58:17;30.10;;;21.90;;
38399;SDS011;24180;42.676;23.320;2022-12-29T06:00:42;35.10;;;21.93;;
38399;SDS011;24180;42.676;23.320;2022-12-29T06:03:08;30.20;;;21.50;;
38399;SDS011;24180;42.676;23.320;2022-12-29T06:05:34;29.57;;;20.73;;
38399;SDS011;24180;42.676;23.320;2022-12-29T06:07:59;29.23;;;21.47;;
38399;SDS011;24180;42.676;23.320;2022-12-29T06:10:25;35.63;;;24.50;;
38399;SDS011;24180;42.676;23.320;2022-12-29T06:12:50;34.50;;;21.93;;
38399;SDS011;24180;42.676;23.320;2022-12-29T06:15:16;37.90;;;22.47;;
38399;SDS011;24180;42.676;23.320;2022-12-29T06:17:41;32.33;;;22.50;;
38399;SDS011;24180;42.676;23.320;2022-12-29T06:20:07;29.60;;;23.07;;
38399;SDS011;24180;42.676;23.320;2022-12-29T06:22:34;33.73;;;22.50;;
38399;SDS011;24180;42.676;23.320;2022-12-29T06:25:00;34.43;;;24.00;;
38399;SDS011;24180;42.676;23.320;2022-12-29T06:27:26;40.60;;;24.17;;
38399;SDS011;24180;42.676;23.320;2022-12-29T06:29:52;35.40;;;24.30;;
38399;SDS011;24180;42.676;23.320;2022-12-29T06:32:17;40.33;;;24.17;;
38399;SDS011;24180;42.676;23.320;2022-12-29T06:34:42;40.80;;;26.03;;
38399;SDS011;24180;42.676;23.320;2022-12-29T06:37:09;36.30;;;24.63;;
38399;SDS011;24180;42.676;23.320;2022-12-29T06:39:35;37.80;;;24.70;;
38399;SDS011;24180;42.676;23.320;2022-12-29T06:42:00;31.87;;;23.97;;
38399;SDS011;24180;42.676;23.320;2022-12-29T06:44:26;40.43;;;26.33;;
38399;SDS011;24180;42.676;23.320;2022-12-29T06:46:51;39.00;;;26.13;;
38399;SDS011;24180;42.676;23.320;2022-12-29T06:49:17;38.57;;;25.40;;
38399;SDS011;24180;42.676;23.320;2022-12-29T06:51:42;35.53;;;26.03;;
38399;SDS011;24180;42.676;23.320;2022-12-29T06:54:08;36.50;;;25.27;;
38399;SDS011;24180;42.676;23.320;2022-12-29T06:56:33;35.57;;;26.17;;
38399;SDS011;24180;42.676;23.320;2022-12-29T06:58:59;37.03;;;26.20;;
38399;SDS011;24180;42.676;23.320;2022-12-29T07:01:26;36.57;;;25.73;;
38399;SDS011;24180;42.676;23.320;2022-12-29T07:03:51;31.77;;;24.33;;
38399;SDS011;24180;42.676;23.320;2022-12-29T07:06:17;37.53;;;25.70;;
38399;SDS011;24180;42.676;23.320;2022-12-29T07:08:42;35.67;;;25.17;;
38399;SDS011;24180;42.676;23.320;2022-12-29T07:11:08;38.20;;;27.13;;
38399;SDS011;24180;42.676;23.320;2022-12-29T07:13:33;37.43;;;27.10;;
38399;SDS011;24180;42.676;23.320;2022-12-29T07:15:59;36.33;;;27.80;;
38399;SDS011;24180;42.676;23.320;2022-12-29T07:18:24;38.93;;;28.13;;
38399;SDS011;24180;42.676;23.320;2022-12-29T07:20:50;40.83;;;28.23;;
38399;SDS011;24180;42.676;23.320;2022-12-29T07:23:15;34.37;;;25.57;;
38399;SDS011;24180;42.676;23.320;2022-12-29T07:25:40;37.23;;;27.57;;
38399;SDS011;24180;42.676;23.320;2022-12-29T07:28:06;34.40;;;25.30;;
38399;SDS011;24180;42.676;23.320;2022-12-29T07:30:32;38.77;;;27.23;;
38399;SDS011;24180;42.676;23.320;2022-12-29T07:32:58;52.10;;;27.37;;
38399;SDS011;24180;42.676;23.320;2022-12-29T07:35:23;33.37;;;25.10;;
38399;SDS011;24180;42.676;23.320;2022-12-29T07:37:49;34.60;;;24.30;;
38399;SDS011;24180;42.676;23.320;2022-12-29T07:40:15;38.47;;;25.40;;
38399;SDS011;24180;42.676;23.320;2022-12-29T07:42:40;50.90;;;26.80;;
38399;SDS011;24180;42.676;23.320;2022-12-29T07:45:07;38.47;;;26.67;;
38399;SDS011;24180;42.676;23.320;2022-12-29T07:47:34;40.50;;;24.47;;
38399;SDS011;24180;42.676;23.320;2022-12-29T07:49:59;31.50;;;23.07;;
38399;SDS011;24180;42.676;23.320;2022-12-29T07:52:25;35.63;;;23.00;;
38399;SDS011;24180;42.676;23.320;2022-12-29T07:54:50;29.40;;;21.23;;
38399;SDS011;24180;42.676;23.320;2022-12-29T07:57:34;30.33;;;20.70;;
38399;SDS011;24180;42.676;23.320;2022-12-29T07:59:59;32.37;;;20.83;;
38399;SDS011;24180;42.676;23.320;2022-12-29T08:02:25;29.23;;;22.43;;
38399;SDS011;24180;42.676;23.320;2022-12-29T08:04:54;29.83;;;20.07;;
38399;SDS011;24180;42.676;23.320;2022-12-29T08:07:20;29.67;;;20.73;;
38399;SDS011;24180;42.676;23.320;2022-12-29T08:09:45;29.17;;;20.50;;
38399;SDS011;24180;42.676;23.320;2022-12-29T08:12:10;32.00;;;22.43;;
38399;SDS011;24180;42.676;23.320;2022-12-29T08:14:36;26.27;;;20.80;;
38399;SDS011;24180;42.676;23.320;2022-12-29T08:17:01;27.97;;;21.57;;
38399;SDS011;24180;42.676;23.320;2022-12-29T08:19:27;35.03;;;23.13;;
38399;SDS011;24180;42.676;23.320;2022-12-29T08:21:52;29.53;;;22.30;;
38399;SDS011;24180;42.676;23.320;2022-12-29T08:24:18;30.87;;;21.53;;
38399;SDS011;24180;42.676;23.320;2022-12-29T08:26:43;33.03;;;22.60;;
38399;SDS011;24180;42.676;23.320;2022-12-29T08:29:09;30.00;;;22.40;;
38399;SDS011;24180;42.676;23.320;2022-12-29T08:31:34;28.57;;;21.57;;
38399;SDS011;24180;42.676;23.320;2022-12-29T08:34:00;31.17;;;22.80;;
38399;SDS011;24180;42.676;23.320;2022-12-29T08:36:28;34.27;;;23.60;;
38399;SDS011;24180;42.676;23.320;2022-12-29T08:38:54;33.50;;;23.53;;
38399;SDS011;24180;42.676;23.320;2022-12-29T08:41:19;32.50;;;23.00;;
38399;SDS011;24180;42.676;23.320;2022-12-29T08:43:48;34.57;;;24.00;;
38399;SDS011;24180;42.676;23.320;2022-12-29T08:46:14;32.73;;;23.93;;
38399;SDS011;24180;42.676;23.320;2022-12-29T08:48:40;32.30;;;22.77;;
38399;SDS011;24180;42.676;23.320;2022-12-29T08:51:06;31.77;;;22.80;;
38399;SDS011;24180;42.676;23.320;2022-12-29T08:53:32;35.67;;;22.53;;
38399;SDS011;24180;42.676;23.320;2022-12-29T08:55:58;32.77;;;23.63;;
38399;SDS011;24180;42.676;23.320;2022-12-29T08:58:25;31.90;;;21.10;;
38399;SDS011;24180;42.676;23.320;2022-12-29T09:00:52;30.43;;;21.67;;
38399;SDS011;24180;42.676;23.320;2022-12-29T09:03:19;29.53;;;21.80;;
38399;SDS011;24180;42.676;23.320;2022-12-29T09:05:47;32.30;;;22.60;;
38399;SDS011;24180;42.676;23.320;2022-12-29T09:08:16;29.13;;;21.60;;
38399;SDS011;24180;42.676;23.320;2022-12-29T09:10:42;32.47;;;23.03;;
38399;SDS011;24180;42.676;23.320;2022-12-29T09:13:08;30.33;;;22.30;;
38399;SDS011;24180;42.676;23.320;2022-12-29T09:15:33;28.10;;;22.90;;
38399;SDS011;24180;42.676;23.320;2022-12-29T09:17:59;30.23;;;23.17;;
38399;SDS011;24180;42.676;23.320;2022-12-29T09:20:24;30.97;;;22.37;;
38399;SDS011;24180;42.676;23.320;2022-12-29T09:22:50;30.13;;;21.20;;
38399;SDS011;24180;42.676;23.320;2022-12-29T09:25:15;27.73;;;21.13;;
38399;SDS011;24180;42.676;23.320;2022-12-29T09:27:41;28.43;;;22.37;;
38399;SDS011;24180;42.676;23.320;2022-12-29T09:30:08;29.53;;;23.00;;
38399;SDS011;24180;42.676;23.320;2022-12-29T09:32:36;30.70;;;22.53;;
38399;SDS011;24180;42.676;23.320;2022-12-29T09:35:01;27.90;;;22.17;;
38399;SDS011;24180;42.676;23.320;2022-12-29T09:37:27;30.70;;;23.50;;
38399;SDS011;24180;42.676;23.320;2022-12-29T09:39:52;28.47;;;24.30;;
38399;SDS011;24180;42.676;23.320;2022-12-29T09:42:29;29.37;;;23.03;;
38399;SDS011;24180;42.676;23.320;2022-12-29T09:45:18;32.43;;;24.33;;
38399;SDS011;24180;42.676;23.320;2022-12-29T09:47:49;31.03;;;24.43;;
38399;SDS011;24180;42.676;23.320;2022-12-29T09:53:02;35.87;;;30.37;;
38399;SDS011;24180;42.676;23.320;2022-12-29T09:55:47;29.57;;;24.93;;
38399;SDS011;24180;42.676;23.320;2022-12-29T09:58:21;31.10;;;24.80;;
38399;SDS011;24180;42.676;23.320;2022-12-29T10:03:49;27.23;;;24.13;;
38399;SDS011;24180;42.676;23.320;2022-12-29T10:06:32;27.77;;;23.80;;
38399;SDS011;24180;42.676;23.320;2022-12-29T10:19:38;27.20;;;23.50;;
38399;SDS011;24180;42.676;23.320;2022-12-29T10:22:11;28.10;;;24.10;;
38399;SDS011;24180;42.676;23.320;2022-12-29T10:24:41;31.17;;;24.27;;
38399;SDS011;24180;42.676;23.320;2022-12-29T10:27:12;30.83;;;24.40;;
38399;SDS011;24180;42.676;23.320;2022-12-29T10:29:45;26.47;;;22.17;;
38399;SDS011;24180;42.676;23.320;2022-12-29T10:32:27;27.73;;;23.80;;
38399;SDS011;24180;42.676;23.320;2022-12-29T10:35:05;27.10;;;22.90;;
38399;SDS011;24180;42.676;23.320;2022-12-29T10:45:59;25.20;;;22.50;;
38399;SDS011;24180;42.676;23.320;2022-12-29T10:48:28;26.27;;;23.43;;
38399;SDS011;24180;42.676;23.320;2022-12-29T10:50:57;25.20;;;21.73;;
38399;SDS011;24180;42.676;23.320;2022-12-29T10:53:34;25.27;;;22.47;;
38399;SDS011;24180;42.676;23.320;2022-12-29T10:56:05;25.83;;;22.63;;
38399;SDS011;24180;42.676;23.320;2022-12-29T10:58:56;26.50;;;23.63;;
38399;SDS011;24180;42.676;23.320;2022-12-29T11:01:26;25.70;;;22.80;;
38399;SDS011;24180;42.676;23.320;2022-12-29T11:06:53;29.40;;;24.43;;
38399;SDS011;24180;42.676;23.320;2022-12-29T11:09:22;29.20;;;24.80;;
38399;SDS011;24180;42.676;23.320;2022-12-29T11:11:53;30.13;;;26.27;;
38399;SDS011;24180;42.676;23.320;2022-12-29T11:14:29;30.33;;;27.03;;
38399;SDS011;24180;42.676;23.320;2022-12-29T11:16:56;34.40;;;28.03;;
38399;SDS011;24180;42.676;23.320;2022-12-29T11:19:25;31.33;;;26.57;;
38399;SDS011;24180;42.676;23.320;2022-12-29T11:21:52;33.53;;;24.80;;
38399;SDS011;24180;42.676;23.320;2022-12-29T11:24:22;28.30;;;22.53;;
38399;SDS011;24180;42.676;23.320;2022-12-29T11:26:49;27.17;;;22.53;;
38399;SDS011;24180;42.676;23.320;2022-12-29T11:29:23;27.27;;;24.13;;
38399;SDS011;24180;42.676;23.320;2022-12-29T11:31:54;39.50;;;23.77;;
38399;SDS011;24180;42.676;23.320;2022-12-29T11:34:30;28.20;;;23.60;;
38399;SDS011;24180;42.676;23.320;2022-12-29T11:37:00;34.47;;;23.43;;
38399;SDS011;24180;42.676;23.320;2022-12-29T11:42:22;29.60;;;23.50;;
38399;SDS011;24180;42.676;23.320;2022-12-29T11:45:09;29.40;;;23.07;;
38399;SDS011;24180;42.676;23.320;2022-12-29T11:47:46;29.53;;;23.83;;
38399;SDS011;24180;42.676;23.320;2022-12-29T11:50:18;28.37;;;22.97;;
38399;SDS011;24180;42.676;23.320;2022-12-29T11:52:47;30.90;;;23.00;;
38399;SDS011;24180;42.676;23.320;2022-12-29T11:55:19;26.97;;;20.63;;
38399;SDS011;24180;42.676;23.320;2022-12-29T11:57:47;31.20;;;22.30;;
38399;SDS011;24180;42.676;23.320;2022-12-29T12:05:28;31.60;;;19.53;;
38399;SDS011;24180;42.676;23.320;2022-12-29T12:08:03;24.83;;;19.67;;
38399;SDS011;24180;42.676;23.320;2022-12-29T12:10:44;29.53;;;20.83;;
38399;SDS011;24180;42.676;23.320;2022-12-29T12:13:19;25.43;;;19.33;;
38399;SDS011;24180;42.676;23.320;2022-12-29T12:16:15;23.97;;;19.23;;
38399;SDS011;24180;42.676;23.320;2022-12-29T12:18:47;27.50;;;19.90;;
38399;SDS011;24180;42.676;23.320;2022-12-29T12:26:55;27.83;;;21.40;;
38399;SDS011;24180;42.676;23.320;2022-12-29T12:30:10;25.53;;;19.40;;
38399;SDS011;24180;42.676;23.320;2022-12-29T12:32:26;23.00;;;18.93;;
38399;SDS011;24180;42.676;23.320;2022-12-29T12:35:11;26.97;;;19.10;;
38399;SDS011;24180;42.676;23.320;2022-12-29T12:40:29;24.43;;;19.60;;
38399;SDS011;24180;42.676;23.320;2022-12-29T12:48:54;24.03;;;19.80;;
38399;SDS011;24180;42.676;23.320;2022-12-29T12:51:47;25.70;;;18.80;;
38399;SDS011;24180;42.676;23.320;2022-12-29T13:00:12;25.37;;;19.03;;
38399;SDS011;24180;42.676;23.320;2022-12-29T13:22:09;24.53;;;19.27;;
38399;SDS011;24180;42.676;23.320;2022-12-29T13:28:46;27.13;;;19.23;;
38399;SDS011;24180;42.676;23.320;2022-12-29T13:31:09;26.57;;;19.40;;
38399;SDS011;24180;42.676;23.320;2022-12-29T13:36:52;29.47;;;19.17;;
38399;SDS011;24180;42.676;23.320;2022-12-29T13:39:40;30.87;;;20.13;;
38399;SDS011;24180;42.676;23.320;2022-12-29T13:42:16;26.50;;;18.67;;
38399;SDS011;24180;42.676;23.320;2022-12-29T13:44:45;24.40;;;18.83;;
38399;SDS011;24180;42.676;23.320;2022-12-29T13:50:17;29.87;;;18.97;;
38399;SDS011;24180;42.676;23.320;2022-12-29T13:55:53;25.27;;;19.73;;
38399;SDS011;24180;42.676;23.320;2022-12-29T14:03:55;26.93;;;19.90;;
38399;SDS011;24180;42.676;23.320;2022-12-29T14:08:49;25.37;;;19.93;;
38399;SDS011;24180;42.676;23.320;2022-12-29T14:11:18;27.97;;;20.83;;
38399;SDS011;24180;42.676;23.320;2022-12-29T14:13:49;27.60;;;19.67;;
38399;SDS011;24180;42.676;23.320;2022-12-29T14:18:49;30.40;;;21.30;;
38399;SDS011;24180;42.676;23.320;2022-12-29T14:21:21;29.73;;;21.33;;
38399;SDS011;24180;42.676;23.320;2022-12-29T14:23:53;25.27;;;19.20;;
38399;SDS011;24180;42.676;23.320;2022-12-29T14:28:56;28.43;;;19.90;;
38399;SDS011;24180;42.676;23.320;2022-12-29T14:31:41;29.03;;;19.83;;
38399;SDS011;24180;42.676;23.320;2022-12-29T14:44:46;31.83;;;22.03;;
38399;SDS011;24180;42.676;23.320;2022-12-29T14:47:16;32.07;;;20.37;;
38399;SDS011;24180;42.676;23.320;2022-12-29T14:49:55;31.60;;;20.40;;
38399;SDS011;24180;42.676;23.320;2022-12-29T14:52:25;31.53;;;21.57;;
38399;SDS011;24180;42.676;23.320;2022-12-29T14:54:54;33.70;;;21.47;;
38399;SDS011;24180;42.676;23.320;2022-12-29T14:57:35;33.00;;;21.40;;
38399;SDS011;24180;42.676;23.320;2022-12-29T15:00:12;26.10;;;21.07;;
38399;SDS011;24180;42.676;23.320;2022-12-29T15:02:43;29.93;;;21.43;;
38399;SDS011;24180;42.676;23.320;2022-12-29T15:05:48;28.87;;;21.17;;
38399;SDS011;24180;42.676;23.320;2022-12-29T15:08:09;29.93;;;22.47;;
38399;SDS011;24180;42.676;23.320;2022-12-29T15:10:38;39.80;;;26.20;;
38399;SDS011;24180;42.676;23.320;2022-12-29T15:13:16;34.17;;;23.07;;
38399;SDS011;24180;42.676;23.320;2022-12-29T15:15:46;34.87;;;23.07;;
38399;SDS011;24180;42.676;23.320;2022-12-29T15:18:13;33.53;;;22.93;;
38399;SDS011;24180;42.676;23.320;2022-12-29T15:20:46;32.03;;;23.27;;
38399;SDS011;24180;42.676;23.320;2022-12-29T15:23:16;36.80;;;24.50;;
38399;SDS011;24180;42.676;23.320;2022-12-29T15:28:22;37.07;;;25.40;;
38399;SDS011;24180;42.676;23.320;2022-12-29T15:30:52;33.37;;;24.00;;
38399;SDS011;24180;42.676;23.320;2022-12-29T15:33:42;35.60;;;23.83;;
38399;SDS011;24180;42.676;23.320;2022-12-29T15:36:13;36.83;;;22.30;;
38399;SDS011;24180;42.676;23.320;2022-12-29T15:38:44;32.17;;;23.50;;
38399;SDS011;24180;42.676;23.320;2022-12-29T15:44:31;34.10;;;23.67;;
38399;SDS011;24180;42.676;23.320;2022-12-29T15:47:02;33.83;;;22.60;;
38399;SDS011;24180;42.676;23.320;2022-12-29T15:49:31;31.77;;;23.00;;
38399;SDS011;24180;42.676;23.320;2022-12-29T15:51:57;38.77;;;25.03;;
38399;SDS011;24180;42.676;23.320;2022-12-29T15:54:24;36.33;;;24.27;;
38399;SDS011;24180;42.676;23.320;2022-12-29T15:56:53;37.13;;;25.37;;
38399;SDS011;24180;42.676;23.320;2022-12-29T16:01:55;35.23;;;24.67;;
38399;SDS011;24180;42.676;23.320;2022-12-29T16:04:22;45.50;;;27.10;;
38399;SDS011;24180;42.676;23.320;2022-12-29T16:06:56;43.23;;;27.73;;
38399;SDS011;24180;42.676;23.320;2022-12-29T16:12:06;51.20;;;34.37;;
38399;SDS011;24180;42.676;23.320;2022-12-29T16:14:44;51.77;;;36.60;;
38399;SDS011;24180;42.676;23.320;2022-12-29T16:17:13;46.03;;;32.00;;
38399;SDS011;24180;42.676;23.320;2022-12-29T16:19:56;55.47;;;31.63;;
38399;SDS011;24180;42.676;23.320;2022-12-29T16:24:53;48.67;;;30.13;;
38399;SDS011;24180;42.676;23.320;2022-12-29T16:27:22;49.93;;;32.33;;
38399;SDS011;24180;42.676;23.320;2022-12-29T16:29:56;54.90;;;30.13;;
38399;SDS011;24180;42.676;23.320;2022-12-29T16:32:29;50.83;;;29.87;;
38399;SDS011;24180;42.676;23.320;2022-12-29T16:35:13;51.00;;;30.07;;
38399;SDS011;24180;42.676;23.320;2022-12-29T16:40:56;50.93;;;31.60;;
38399;SDS011;24180;42.676;23.320;2022-12-29T16:43:23;54.30;;;34.33;;
38399;SDS011;24180;42.676;23.320;2022-12-29T16:48:17;60.00;;;35.77;;
38399;SDS011;24180;42.676;23.320;2022-12-29T16:50:45;63.00;;;36.93;;
38399;SDS011;24180;42.676;23.320;2022-12-29T16:53:24;67.93;;;37.90;;
38399;SDS011;24180;42.676;23.320;2022-12-29T16:55:53;63.33;;;38.10;;
38399;SDS011;24180;42.676;23.320;2022-12-29T16:58:23;63.70;;;38.70;;
38399;SDS011;24180;42.676;23.320;2022-12-29T17:00:55;58.67;;;38.47;;
38399;SDS011;24180;42.676;23.320;2022-12-29T17:03:23;65.10;;;38.17;;
38399;SDS011;24180;42.676;23.320;2022-12-29T17:05:57;63.20;;;38.13;;
38399;SDS011;24180;42.676;23.320;2022-12-29T17:08:23;59.23;;;37.27;;
38399;SDS011;24180;42.676;23.320;2022-12-29T17:10:51;67.03;;;38.10;;
38399;SDS011;24180;42.676;23.320;2022-12-29T17:13:38;54.20;;;34.73;;
38399;SDS011;24180;42.676;23.320;2022-12-29T17:16:04;60.47;;;36.43;;
38399;SDS011;24180;42.676;23.320;2022-12-29T17:18:32;63.90;;;37.30;;
38399;SDS011;24180;42.676;23.320;2022-12-29T17:20:58;69.53;;;38.57;;